createdAt,value
2017-01-17T00:00:22.776Z,0
2017-01-17T00:01:23.407Z,0
2017-01-17T00:02:23.119Z,0
2017-01-17T00:03:22.845Z,0
2017-01-17T00:04:22.287Z,0
2017-01-17T00:05:21.878Z,0
2017-01-17T00:06:22.765Z,0
2017-01-17T00:07:23.138Z,0
2017-01-17T00:08:22.391Z,0
2017-01-17T00:09:22.283Z,0
2017-01-17T00:10:22.616Z,0
2017-01-17T00:11:22.418Z,0
2017-01-17T00:12:22.258Z,0
2017-01-17T00:13:22.527Z,0
2017-01-17T00:14:21.864Z,0
2017-01-17T00:15:22.706Z,0
2017-01-17T00:16:22.542Z,0
2017-01-17T00:17:22.684Z,0
2017-01-17T00:18:23.063Z,0
2017-01-17T00:19:22.979Z,0
2017-01-17T00:20:22.137Z,0
2017-01-17T00:21:23.122Z,0
2017-01-17T00:22:22.942Z,0
2017-01-17T00:23:24.036Z,0
2017-01-17T00:24:22.890Z,0
2017-01-17T00:25:22.911Z,0
2017-01-17T00:26:23.826Z,0
2017-01-17T00:27:21.875Z,0
2017-01-17T00:28:22.162Z,0
2017-01-17T00:29:22.423Z,0
2017-01-17T00:30:22.292Z,0
2017-01-17T00:31:22.893Z,0
2017-01-17T00:32:22.668Z,0
2017-01-17T00:33:21.793Z,0
2017-01-17T00:34:22.604Z,0
2017-01-17T00:35:23.768Z,0
2017-01-17T00:36:22.713Z,0
2017-01-17T00:37:23.238Z,0
2017-01-17T00:38:23.245Z,0
2017-01-17T00:39:22.798Z,0
2017-01-17T00:40:22.506Z,0
2017-01-17T00:41:23.706Z,0
2017-01-17T00:42:22.324Z,0
2017-01-17T00:43:22.818Z,0
2017-01-17T00:44:23.707Z,0
2017-01-17T00:45:23.605Z,0
2017-01-17T00:46:22.645Z,0
2017-01-17T00:47:23.680Z,0
2017-01-17T00:48:22.911Z,0
2017-01-17T00:49:23.713Z,0
2017-01-17T00:50:22.711Z,0
2017-01-17T00:51:24.096Z,0
2017-01-17T00:52:23.647Z,0
2017-01-17T00:53:23.241Z,0
2017-01-17T00:54:22.676Z,0
2017-01-17T00:55:22.645Z,0
2017-01-17T00:56:23.530Z,0
2017-01-17T00:57:22.608Z,0
2017-01-17T00:58:23.457Z,0
2017-01-17T00:59:22.189Z,0
2017-01-17T01:00:23.219Z,0
2017-01-17T01:01:23.057Z,0
2017-01-17T01:02:24.004Z,0
2017-01-17T01:03:24.734Z,0
2017-01-17T01:04:22.883Z,0
2017-01-17T01:05:23.841Z,0
2017-01-17T01:06:22.479Z,0
2017-01-17T01:07:22.545Z,0
2017-01-17T01:08:23.465Z,0
2017-01-17T01:09:22.825Z,0
2017-01-17T01:10:22.907Z,0
2017-01-17T01:11:23.474Z,0
2017-01-17T01:12:23.703Z,0
2017-01-17T01:13:23.420Z,0
2017-01-17T01:14:22.682Z,0
2017-01-17T01:15:22.833Z,0
2017-01-17T01:16:23.226Z,0
2017-01-17T01:17:24.074Z,0
2017-01-17T01:18:24.599Z,0
2017-01-17T01:19:22.376Z,0
2017-01-17T01:20:23.924Z,0
2017-01-17T01:21:23.597Z,0
2017-01-17T01:22:23.749Z,0
2017-01-17T01:23:23.249Z,0
2017-01-17T01:24:23.850Z,0
2017-01-17T01:25:24.211Z,0
2017-01-17T01:26:23.756Z,0
2017-01-17T01:27:23.747Z,0
2017-01-17T01:28:23.962Z,0
2017-01-17T01:29:23.574Z,0
2017-01-17T01:30:24.654Z,0
2017-01-17T01:31:23.985Z,0
2017-01-17T01:32:23.195Z,0
2017-01-17T01:33:23.979Z,0
2017-01-17T01:34:23.864Z,0
2017-01-17T01:35:23.132Z,0
2017-01-17T01:36:23.634Z,0
2017-01-17T01:37:24.126Z,0
2017-01-17T01:38:24.041Z,0
2017-01-17T01:39:23.932Z,0
2017-01-17T01:40:24.168Z,0
2017-01-17T01:41:23.748Z,0
2017-01-17T01:42:24.521Z,0
2017-01-17T01:43:23.903Z,0
2017-01-17T01:44:23.781Z,0
2017-01-17T01:45:23.835Z,0
2017-01-17T01:46:24.106Z,0
2017-01-17T01:47:23.654Z,0
2017-01-17T01:48:24.103Z,0
2017-01-17T01:49:23.559Z,0
2017-01-17T01:50:23.781Z,0
2017-01-17T01:51:23.903Z,0
2017-01-17T01:52:24.121Z,0
2017-01-17T01:53:24.011Z,0
2017-01-17T01:54:23.984Z,0
2017-01-17T01:55:23.767Z,0
2017-01-17T01:56:23.680Z,0
2017-01-17T01:57:24.045Z,0
2017-01-17T01:58:23.824Z,0
2017-01-17T01:59:24.423Z,0
2017-01-17T02:00:24.258Z,0
2017-01-17T02:01:23.903Z,0
2017-01-17T02:02:23.908Z,0
2017-01-17T02:03:24.114Z,0
2017-01-17T02:04:23.482Z,0
2017-01-17T02:05:24.641Z,0
2017-01-17T02:06:24.186Z,0
2017-01-17T02:07:22.788Z,0
2017-01-17T02:08:24.068Z,0
2017-01-17T02:09:24.093Z,0
2017-01-17T02:10:23.464Z,0
2017-01-17T02:11:24.415Z,0
2017-01-17T02:12:23.155Z,0
2017-01-17T02:13:23.529Z,0
2017-01-17T02:14:24.854Z,0
2017-01-17T02:15:24.204Z,0
2017-01-17T02:16:24.336Z,0
2017-01-17T02:17:24.052Z,0
2017-01-17T02:18:23.223Z,0
2017-01-17T02:19:23.629Z,0
2017-01-17T02:20:24.320Z,0
2017-01-17T02:21:24.994Z,0
2017-01-17T02:22:24.053Z,0
2017-01-17T02:23:23.499Z,0
2017-01-17T02:24:24.887Z,0
2017-01-17T02:25:25.411Z,0
2017-01-17T02:26:24.608Z,0
2017-01-17T02:27:23.663Z,0
2017-01-17T02:28:23.457Z,0
2017-01-17T02:29:25.072Z,0
2017-01-17T02:30:24.058Z,0
2017-01-17T02:31:24.100Z,0
2017-01-17T02:32:23.703Z,0
2017-01-17T02:33:24.191Z,0
2017-01-17T02:34:24.543Z,0
2017-01-17T02:35:24.003Z,0
2017-01-17T02:36:23.982Z,0
2017-01-17T02:37:23.763Z,0
2017-01-17T02:38:24.329Z,0
2017-01-17T02:39:24.674Z,0
2017-01-17T02:40:24.458Z,0
2017-01-17T02:41:24.033Z,0
2017-01-17T02:42:24.022Z,0
2017-01-17T02:43:23.778Z,0
2017-01-17T02:44:24.409Z,0
2017-01-17T02:45:24.639Z,0
2017-01-17T02:46:24.239Z,0
2017-01-17T02:47:23.689Z,0
2017-01-17T02:48:24.791Z,0
2017-01-17T02:49:24.797Z,0
2017-01-17T02:50:24.446Z,0
2017-01-17T02:51:23.985Z,0
2017-01-17T02:52:23.959Z,0
2017-01-17T02:53:24.271Z,0
2017-01-17T02:54:24.293Z,0
2017-01-17T02:55:23.946Z,0
2017-01-17T02:56:25.301Z,0
2017-01-17T02:57:24.083Z,0
2017-01-17T02:58:24.716Z,0
2017-01-17T02:59:24.381Z,0
2017-01-17T03:00:24.203Z,0
2017-01-17T03:01:24.447Z,0
2017-01-17T03:02:24.505Z,0
2017-01-17T03:03:24.113Z,0
2017-01-17T03:04:25.073Z,0
2017-01-17T03:05:24.123Z,0
2017-01-17T03:06:24.374Z,0
2017-01-17T03:07:25.064Z,0
2017-01-17T03:08:25.526Z,0
2017-01-17T03:09:25.587Z,0
2017-01-17T03:10:24.735Z,0
2017-01-17T03:11:23.759Z,0
2017-01-17T03:12:25.096Z,0
2017-01-17T03:13:24.238Z,0
2017-01-17T03:14:24.728Z,0
2017-01-17T03:15:24.961Z,0
2017-01-17T03:16:24.841Z,0
2017-01-17T03:17:24.455Z,0
2017-01-17T03:18:24.559Z,0
2017-01-17T03:19:24.201Z,0
2017-01-17T03:20:25.677Z,0
2017-01-17T03:21:24.191Z,0
2017-01-17T03:22:24.683Z,0
2017-01-17T03:23:24.599Z,0
2017-01-17T03:24:24.603Z,0
2017-01-17T03:25:24.847Z,0
2017-01-17T03:26:23.756Z,0
2017-01-17T03:27:25.123Z,0
2017-01-17T03:28:24.396Z,0
2017-01-17T03:29:25.148Z,0
2017-01-17T03:30:24.544Z,0
2017-01-17T03:31:25.324Z,0
2017-01-17T03:32:24.483Z,0
2017-01-17T03:33:24.763Z,0
2017-01-17T03:34:25.754Z,0
2017-01-17T03:35:24.325Z,0
2017-01-17T03:36:24.518Z,0
2017-01-17T03:37:24.733Z,0
2017-01-17T03:38:24.671Z,0
2017-01-17T03:39:24.728Z,0
2017-01-17T03:40:24.530Z,0
2017-01-17T03:41:25.900Z,0
2017-01-17T03:42:24.581Z,0
2017-01-17T03:43:24.681Z,0
2017-01-17T03:44:25.608Z,0
2017-01-17T03:45:24.946Z,0
2017-01-17T03:46:24.826Z,0
2017-01-17T03:47:25.324Z,0
2017-01-17T03:48:24.749Z,0
2017-01-17T03:49:25.529Z,0
2017-01-17T03:50:25.096Z,0
2017-01-17T03:51:24.679Z,0
2017-01-17T03:52:25.468Z,0
2017-01-17T03:53:25.454Z,0
2017-01-17T03:54:25.305Z,0
2017-01-17T03:55:25.556Z,0
2017-01-17T03:56:24.872Z,0
2017-01-17T03:57:24.841Z,0
2017-01-17T03:58:24.753Z,0
2017-01-17T03:59:24.503Z,0
2017-01-17T04:00:26.244Z,0
2017-01-17T04:01:25.312Z,0
2017-01-17T04:02:25.050Z,0
2017-01-17T04:03:26.028Z,0
2017-01-17T04:04:25.484Z,0
2017-01-17T04:05:24.240Z,0
2017-01-17T04:06:26.372Z,0
2017-01-17T04:07:24.963Z,0
2017-01-17T04:08:24.985Z,0
2017-01-17T04:09:24.175Z,0
2017-01-17T04:10:24.878Z,0
2017-01-17T04:11:24.274Z,0
2017-01-17T04:12:25.085Z,0
2017-01-17T04:13:25.236Z,0
2017-01-17T04:14:25.052Z,0
2017-01-17T04:15:26.054Z,0
2017-01-17T04:16:25.298Z,0
2017-01-17T04:17:25.357Z,0
2017-01-17T04:18:25.478Z,0
2017-01-17T04:19:24.333Z,0
2017-01-17T04:20:24.468Z,0
2017-01-17T04:21:25.408Z,0
2017-01-17T04:22:25.272Z,0
2017-01-17T04:23:24.377Z,0
2017-01-17T04:24:25.277Z,0
2017-01-17T04:25:25.377Z,0
2017-01-17T04:26:24.948Z,0
2017-01-17T04:27:24.932Z,0
2017-01-17T04:28:25.474Z,0
2017-01-17T04:29:24.390Z,0
2017-01-17T04:30:24.825Z,0
2017-01-17T04:31:25.772Z,0
2017-01-17T04:32:24.980Z,0
2017-01-17T04:33:25.482Z,0
2017-01-17T04:34:25.262Z,0
2017-01-17T04:35:25.120Z,0
2017-01-17T04:36:25.261Z,0
2017-01-17T04:37:25.634Z,0
2017-01-17T04:38:25.767Z,0
2017-01-17T04:39:25.861Z,0
2017-01-17T04:40:26.602Z,0
2017-01-17T04:41:26.058Z,0
2017-01-17T04:42:25.783Z,0
2017-01-17T04:43:24.757Z,0
2017-01-17T04:44:26.225Z,0
2017-01-17T04:45:25.729Z,0
2017-01-17T04:46:24.883Z,0
2017-01-17T04:47:25.917Z,0
2017-01-17T04:48:26.157Z,0
2017-01-17T04:49:25.699Z,0
2017-01-17T04:50:25.832Z,0
2017-01-17T04:51:25.645Z,0
2017-01-17T04:52:26.130Z,0
2017-01-17T04:53:25.677Z,0
2017-01-17T04:54:25.221Z,0
2017-01-17T04:55:25.113Z,0
2017-01-17T04:56:26.017Z,0
2017-01-17T04:57:25.133Z,0
2017-01-17T04:58:25.622Z,0
2017-01-17T04:59:25.978Z,0
2017-01-17T05:00:24.966Z,0
2017-01-17T05:01:25.916Z,0
2017-01-17T05:02:24.999Z,0
2017-01-17T05:03:25.857Z,0
2017-01-17T05:04:26.152Z,0
2017-01-17T05:05:25.703Z,0
2017-01-17T05:06:26.433Z,0
2017-01-17T05:07:25.046Z,0
2017-01-17T05:08:25.520Z,0
2017-01-17T05:09:27.041Z,0
2017-01-17T05:10:26.920Z,0
2017-01-17T05:11:26.334Z,0
2017-01-17T05:12:25.959Z,0
2017-01-17T05:13:26.259Z,0
2017-01-17T05:14:26.635Z,0
2017-01-17T05:15:26.734Z,0
2017-01-17T05:16:25.967Z,0
2017-01-17T05:17:25.869Z,0
2017-01-17T05:18:26.760Z,0
2017-01-17T05:19:27.728Z,0
2017-01-17T05:20:26.347Z,0
2017-01-17T05:21:26.489Z,0
2017-01-17T05:22:25.991Z,0
2017-01-17T05:23:27.391Z,0
2017-01-17T05:24:26.970Z,0
2017-01-17T05:25:26.752Z,0
2017-01-17T05:26:26.343Z,0
2017-01-17T05:27:26.857Z,0
2017-01-17T05:28:26.242Z,0
2017-01-17T05:29:26.951Z,0
2017-01-17T05:30:25.723Z,0
2017-01-17T05:31:26.409Z,0
2017-01-17T05:32:26.492Z,0
2017-01-17T05:33:26.865Z,0
2017-01-17T05:34:26.543Z,0
2017-01-17T05:35:25.651Z,0
2017-01-17T05:36:26.248Z,0
2017-01-17T05:37:26.178Z,0
2017-01-17T05:38:25.935Z,0
2017-01-17T05:39:27.237Z,0
2017-01-17T05:40:26.230Z,0
2017-01-17T05:41:26.724Z,0
2017-01-17T05:42:26.699Z,0
2017-01-17T05:43:26.546Z,0
2017-01-17T05:44:26.220Z,0
2017-01-17T05:45:25.926Z,0
2017-01-17T05:46:27.639Z,0
2017-01-17T05:47:27.910Z,0
2017-01-17T05:48:27.000Z,0
2017-01-17T05:49:25.895Z,0
2017-01-17T05:50:26.277Z,0
2017-01-17T05:51:25.649Z,0
2017-01-17T05:52:26.319Z,0
2017-01-17T05:53:26.679Z,0
2017-01-17T05:54:26.371Z,0
2017-01-17T05:55:26.432Z,0
2017-01-17T05:56:25.635Z,0
2017-01-17T05:57:25.856Z,0
2017-01-17T05:58:25.774Z,0
2017-01-17T05:59:26.145Z,0
2017-01-17T06:00:26.704Z,0
2017-01-17T06:01:27.108Z,0
2017-01-17T06:02:26.516Z,0
2017-01-17T06:03:26.287Z,0
2017-01-17T06:04:28.512Z,0
2017-01-17T06:05:26.954Z,0
2017-01-17T06:06:27.005Z,0
2017-01-17T06:07:26.902Z,0
2017-01-17T06:08:26.451Z,0
2017-01-17T06:09:27.083Z,0
2017-01-17T06:10:26.158Z,0
2017-01-17T06:11:26.028Z,0
2017-01-17T06:12:25.957Z,0
2017-01-17T06:13:26.684Z,0
2017-01-17T06:14:26.713Z,0
2017-01-17T06:15:27.265Z,0
2017-01-17T06:16:26.210Z,0
2017-01-17T06:17:27.215Z,0
2017-01-17T06:18:27.594Z,0
2017-01-17T06:19:25.864Z,0
2017-01-17T06:20:26.518Z,0
2017-01-17T06:21:26.360Z,0
2017-01-17T06:22:27.291Z,0
2017-01-17T06:23:27.020Z,0
2017-01-17T06:24:27.135Z,0
2017-01-17T06:25:26.875Z,0
2017-01-17T06:26:26.320Z,0
2017-01-17T06:27:26.921Z,0
2017-01-17T06:28:27.111Z,0
2017-01-17T06:29:25.973Z,0
2017-01-17T06:30:26.225Z,0
2017-01-17T06:31:27.052Z,0
2017-01-17T06:32:27.123Z,0
2017-01-17T06:33:27.783Z,0
2017-01-17T06:34:30.419Z,0
2017-01-17T06:35:26.513Z,0
2017-01-17T06:36:26.812Z,0
2017-01-17T06:37:26.220Z,0
2017-01-17T06:38:25.871Z,0
2017-01-17T06:39:26.868Z,0
2017-01-17T06:40:26.652Z,0
2017-01-17T06:41:26.439Z,0
2017-01-17T06:42:26.306Z,0
2017-01-17T06:43:27.028Z,0
2017-01-17T06:44:27.105Z,0
2017-01-17T06:45:27.112Z,4
2017-01-17T06:46:27.572Z,4
2017-01-17T06:47:27.108Z,0
2017-01-17T06:48:26.849Z,4
2017-01-17T06:49:26.866Z,4
2017-01-17T06:50:27.271Z,4
2017-01-17T06:51:26.965Z,4
2017-01-17T06:52:26.443Z,4
2017-01-17T06:53:26.249Z,4
2017-01-17T06:54:26.572Z,8
2017-01-17T06:55:28.317Z,12
2017-01-17T06:56:27.447Z,12
2017-01-17T06:57:26.374Z,16
2017-01-17T06:58:27.504Z,16
2017-01-17T06:59:26.728Z,20
2017-01-17T07:00:26.237Z,24
2017-01-17T07:01:26.696Z,24
2017-01-17T07:02:27.657Z,28
2017-01-17T07:03:27.425Z,32
2017-01-17T07:04:26.459Z,28
2017-01-17T07:05:27.797Z,36
2017-01-17T07:06:27.696Z,44
2017-01-17T07:07:26.664Z,48
2017-01-17T07:08:27.423Z,52
2017-01-17T07:09:26.835Z,60
2017-01-17T07:10:27.341Z,64
2017-01-17T07:11:26.617Z,72
2017-01-17T07:12:26.807Z,84
2017-01-17T07:13:27.194Z,92
2017-01-17T07:14:26.766Z,104
2017-01-17T07:15:26.879Z,124
2017-01-17T07:16:26.720Z,140
2017-01-17T07:17:27.742Z,160
2017-01-17T07:18:26.321Z,176
2017-01-17T07:19:27.531Z,196
2017-01-17T07:20:27.395Z,212
2017-01-17T07:21:26.617Z,224
2017-01-17T07:22:26.664Z,232
2017-01-17T07:23:27.456Z,256
2017-01-17T07:24:27.213Z,276
2017-01-17T07:25:26.595Z,284
2017-01-17T07:26:27.077Z,284
2017-01-17T07:27:27.626Z,304
2017-01-17T07:28:28.148Z,328
2017-01-17T07:29:27.146Z,332
2017-01-17T07:30:27.726Z,328
2017-01-17T07:31:27.379Z,344
2017-01-17T07:32:28.108Z,364
2017-01-17T07:33:26.754Z,404
2017-01-17T07:34:27.323Z,476
2017-01-17T07:35:25.962Z,504
2017-01-17T07:36:26.137Z,460
2017-01-17T07:37:26.628Z,460
2017-01-17T07:38:26.453Z,536
2017-01-17T07:39:26.294Z,564
2017-01-17T07:40:26.384Z,536
2017-01-17T07:41:26.327Z,484
2017-01-17T07:42:26.844Z,412
2017-01-17T07:43:26.607Z,408
2017-01-17T07:44:26.359Z,496
2017-01-17T07:45:26.675Z,608
2017-01-17T07:46:27.944Z,564
2017-01-17T07:47:27.837Z,436
2017-01-17T07:48:28.413Z,436
2017-01-17T07:49:27.971Z,528
2017-01-17T07:50:27.292Z,676
2017-01-17T07:51:27.414Z,696
2017-01-17T07:52:27.512Z,712
2017-01-17T07:53:26.557Z,824
2017-01-17T07:54:27.704Z,876
2017-01-17T07:55:27.352Z,940
2017-01-17T07:56:26.729Z,928
2017-01-17T07:57:27.738Z,872
2017-01-17T07:58:27.876Z,864
2017-01-17T07:59:27.843Z,1096
2017-01-17T08:00:27.019Z,1228
2017-01-17T08:01:28.628Z,1148
2017-01-17T08:02:28.102Z,1188
2017-01-17T08:03:27.247Z,1228
2017-01-17T08:04:27.781Z,1204
2017-01-17T08:05:27.613Z,1240
2017-01-17T08:06:27.183Z,1248
2017-01-17T08:07:27.895Z,1176
2017-01-17T08:08:27.740Z,1260
2017-01-17T08:09:27.790Z,1412
2017-01-17T08:10:27.723Z,1564
2017-01-17T08:11:26.515Z,1648
2017-01-17T08:12:26.921Z,1536
2017-01-17T08:13:27.676Z,1508
2017-01-17T08:14:27.902Z,1720
2017-01-17T08:15:28.515Z,1824
2017-01-17T08:16:28.514Z,1836
2017-01-17T08:17:27.444Z,1904
2017-01-17T08:18:26.901Z,1996
2017-01-17T08:19:27.303Z,2068
2017-01-17T08:20:27.059Z,2212
2017-01-17T08:21:28.594Z,2332
2017-01-17T08:22:27.574Z,2368
2017-01-17T08:23:27.622Z,2448
2017-01-17T08:24:27.974Z,2516
2017-01-17T08:25:26.631Z,2616
2017-01-17T08:26:27.305Z,2744
2017-01-17T08:27:27.336Z,2840
2017-01-17T08:28:27.840Z,2860
2017-01-17T08:29:26.954Z,2892
2017-01-17T08:30:27.793Z,2964
2017-01-17T08:31:27.954Z,3040
2017-01-17T08:32:27.422Z,3076
2017-01-17T08:33:28.443Z,3136
2017-01-17T08:34:27.946Z,3228
2017-01-17T08:35:26.906Z,3368
2017-01-17T08:36:27.542Z,3480
2017-01-17T08:37:28.693Z,3620
2017-01-17T08:38:27.800Z,3704
2017-01-17T08:39:27.444Z,3768
2017-01-17T08:40:28.002Z,3732
2017-01-17T08:41:28.122Z,3728
2017-01-17T08:42:27.952Z,3788
2017-01-17T08:43:27.945Z,3816
2017-01-17T08:44:28.259Z,3860
2017-01-17T08:45:27.223Z,3908
2017-01-17T08:46:27.818Z,4064
2017-01-17T08:47:27.699Z,4196
2017-01-17T08:48:28.186Z,4208
2017-01-17T08:49:28.309Z,4080
2017-01-17T08:50:27.885Z,4192
2017-01-17T08:51:28.754Z,4424
2017-01-17T08:52:27.359Z,4632
2017-01-17T08:53:27.605Z,4644
2017-01-17T08:54:27.536Z,4804
2017-01-17T08:55:28.715Z,4972
2017-01-17T08:56:27.731Z,5292
2017-01-17T08:57:28.227Z,5424
2017-01-17T08:58:27.977Z,5240
2017-01-17T08:59:27.913Z,5132
2017-01-17T09:00:29.840Z,5088
2017-01-17T09:01:27.574Z,4660
2017-01-17T09:02:27.771Z,4200
2017-01-17T09:03:26.962Z,4196
2017-01-17T09:04:27.697Z,4552
2017-01-17T09:05:27.692Z,4872
2017-01-17T09:06:27.512Z,5096
2017-01-17T09:07:27.405Z,5072
2017-01-17T09:08:28.436Z,4792
2017-01-17T09:09:28.504Z,5064
2017-01-17T09:10:27.493Z,5308
2017-01-17T09:11:27.627Z,5636
2017-01-17T09:12:29.296Z,6036
2017-01-17T09:13:28.682Z,6016
2017-01-17T09:14:28.648Z,6468
2017-01-17T09:15:27.560Z,6064
2017-01-17T09:16:28.386Z,5396
2017-01-17T09:17:27.892Z,5380
2017-01-17T09:18:28.871Z,5652
2017-01-17T09:19:28.753Z,5848
2017-01-17T09:20:29.540Z,5932
2017-01-17T09:21:28.226Z,5852
2017-01-17T09:22:28.143Z,5664
2017-01-17T09:23:28.695Z,5724
2017-01-17T09:24:28.391Z,5812
2017-01-17T09:25:27.544Z,5360
2017-01-17T09:26:28.526Z,5084
2017-01-17T09:27:28.186Z,4924
2017-01-17T09:28:28.294Z,4640
2017-01-17T09:29:28.783Z,4784
2017-01-17T09:30:28.034Z,5408
2017-01-17T09:31:27.951Z,5484
2017-01-17T09:32:28.957Z,5228
2017-01-17T09:33:28.194Z,4896
2017-01-17T09:34:28.795Z,4588
2017-01-17T09:35:28.553Z,4512
2017-01-17T09:36:28.685Z,4604
2017-01-17T09:37:28.660Z,4232
2017-01-17T09:38:27.759Z,3748
2017-01-17T09:39:27.591Z,3684
2017-01-17T09:40:28.337Z,3604
2017-01-17T09:41:28.760Z,3580
2017-01-17T09:42:28.835Z,3832
2017-01-17T09:43:27.606Z,3944
2017-01-17T09:44:28.694Z,3936
2017-01-17T09:45:28.738Z,4136
2017-01-17T09:46:27.963Z,4376
2017-01-17T09:47:29.756Z,4604
2017-01-17T09:48:28.087Z,4868
2017-01-17T09:49:28.607Z,5332
2017-01-17T09:50:28.272Z,5220
2017-01-17T09:51:27.778Z,4852
2017-01-17T09:52:28.750Z,4720
2017-01-17T09:53:29.655Z,4844
2017-01-17T09:54:29.417Z,5296
2017-01-17T09:55:29.110Z,5560
2017-01-17T09:56:28.794Z,5412
2017-01-17T09:57:29.033Z,5476
2017-01-17T09:58:28.975Z,5920
2017-01-17T09:59:28.093Z,5720
2017-01-17T10:00:28.154Z,5344
2017-01-17T10:01:28.406Z,5408
2017-01-17T10:02:28.175Z,5776
2017-01-17T10:03:28.172Z,5764
2017-01-17T10:04:29.137Z,6028
2017-01-17T10:05:29.073Z,6528
2017-01-17T10:06:29.480Z,7008
2017-01-17T10:07:29.261Z,7476
2017-01-17T10:08:28.866Z,7788
2017-01-17T10:09:28.673Z,8112
2017-01-17T10:10:28.132Z,7428
2017-01-17T10:11:28.621Z,7884
2017-01-17T10:12:28.674Z,9280
2017-01-17T10:13:29.041Z,9764
2017-01-17T10:14:28.594Z,9852
2017-01-17T10:15:28.932Z,8800
2017-01-17T10:16:29.298Z,8476
2017-01-17T10:17:28.148Z,8052
2017-01-17T10:18:28.434Z,7952
2017-01-17T10:19:29.312Z,8632
2017-01-17T10:20:28.798Z,9108
2017-01-17T10:21:28.999Z,8828
2017-01-17T10:22:29.673Z,8028
2017-01-17T10:23:29.585Z,7180
2017-01-17T10:24:30.142Z,6428
2017-01-17T10:25:28.757Z,6140
2017-01-17T10:26:28.658Z,5840
2017-01-17T10:27:30.385Z,5684
2017-01-17T10:28:29.679Z,5888
2017-01-17T10:29:31.318Z,6100
2017-01-17T10:30:28.803Z,6088
2017-01-17T10:31:28.499Z,6012
2017-01-17T10:32:29.379Z,5916
2017-01-17T10:33:28.681Z,5872
2017-01-17T10:34:29.819Z,5324
2017-01-17T10:35:28.857Z,4952
2017-01-17T10:36:29.623Z,4768
2017-01-17T10:37:29.750Z,4764
2017-01-17T10:38:29.369Z,4828
2017-01-17T10:39:28.725Z,4900
2017-01-17T10:40:28.977Z,5044
2017-01-17T10:41:30.550Z,5236
2017-01-17T10:42:29.902Z,5404
2017-01-17T10:43:28.839Z,5648
2017-01-17T10:44:29.743Z,5936
2017-01-17T10:45:28.521Z,6268
2017-01-17T10:46:30.214Z,6684
2017-01-17T10:47:28.817Z,7088
2017-01-17T10:48:28.559Z,7592
2017-01-17T10:49:28.953Z,7968
2017-01-17T10:50:29.605Z,8180
2017-01-17T10:51:30.033Z,8168
2017-01-17T10:52:29.884Z,7980
2017-01-17T10:53:29.543Z,7616
2017-01-17T10:54:29.321Z,7356
2017-01-17T10:55:29.511Z,7316
2017-01-17T10:56:29.266Z,7472
2017-01-17T10:57:29.077Z,7712
2017-01-17T10:58:30.768Z,8128
2017-01-17T10:59:29.032Z,8176
2017-01-17T11:00:29.187Z,8412
2017-01-17T11:01:29.231Z,8952
2017-01-17T11:02:29.588Z,9176
2017-01-17T11:03:28.970Z,9068
2017-01-17T11:04:28.707Z,8956
2017-01-17T11:05:29.752Z,8956
2017-01-17T11:06:30.043Z,8844
2017-01-17T11:07:29.346Z,8908
2017-01-17T11:08:29.185Z,9004
2017-01-17T11:09:30.415Z,9040
2017-01-17T11:10:29.384Z,9028
2017-01-17T11:11:28.806Z,9072
2017-01-17T11:12:30.433Z,9396
2017-01-17T11:13:29.926Z,9908
2017-01-17T11:14:30.617Z,10396
2017-01-17T11:15:28.869Z,10840
2017-01-17T11:16:30.006Z,11296
2017-01-17T11:17:30.872Z,11840
2017-01-17T11:18:29.298Z,12564
2017-01-17T11:19:29.371Z,12996
2017-01-17T11:20:29.385Z,13016
2017-01-17T11:21:30.273Z,13204
2017-01-17T11:22:30.057Z,13036
2017-01-17T11:23:29.433Z,13384
2017-01-17T11:24:29.927Z,13148
2017-01-17T11:25:30.229Z,13236
2017-01-17T11:26:29.926Z,13292
2017-01-17T11:27:30.247Z,13340
2017-01-17T11:28:30.575Z,13420
2017-01-17T11:29:31.035Z,12408
2017-01-17T11:30:29.942Z,11796
2017-01-17T11:31:30.268Z,11292
2017-01-17T11:32:30.017Z,11256
2017-01-17T11:33:30.901Z,12084
2017-01-17T11:34:30.432Z,12340
2017-01-17T11:35:30.827Z,12196
2017-01-17T11:36:29.938Z,11760
2017-01-17T11:37:29.574Z,11560
2017-01-17T11:38:30.747Z,11632
2017-01-17T11:39:29.730Z,11848
2017-01-17T11:40:30.720Z,11820
2017-01-17T11:41:30.639Z,11940
2017-01-17T11:42:29.720Z,12360
2017-01-17T11:43:29.800Z,12592
2017-01-17T11:44:29.915Z,12052
2017-01-17T11:45:30.618Z,11880
2017-01-17T11:46:31.049Z,12124
2017-01-17T11:47:29.882Z,11976
2017-01-17T11:48:29.970Z,11700
2017-01-17T11:49:29.747Z,11620
2017-01-17T11:50:30.829Z,11292
2017-01-17T11:51:30.550Z,10528
2017-01-17T11:52:29.992Z,10460
2017-01-17T11:53:30.926Z,10364
2017-01-17T11:54:30.633Z,10084
2017-01-17T11:55:29.765Z,9508
2017-01-17T11:56:29.884Z,8952
2017-01-17T11:57:30.195Z,8640
2017-01-17T11:58:31.515Z,8308
2017-01-17T11:59:30.278Z,7864
2017-01-17T12:00:29.494Z,7388
2017-01-17T12:01:29.720Z,6828
2017-01-17T12:02:30.271Z,6184
2017-01-17T12:03:29.631Z,5784
2017-01-17T12:04:30.402Z,5644
2017-01-17T12:05:30.283Z,5748
2017-01-17T12:06:30.137Z,6568
2017-01-17T12:07:29.859Z,7452
2017-01-17T12:08:30.431Z,8012
2017-01-17T12:09:30.623Z,8676
2017-01-17T12:10:31.442Z,9320
2017-01-17T12:11:30.114Z,9444
2017-01-17T12:12:31.349Z,9264
2017-01-17T12:13:31.070Z,8944
2017-01-17T12:14:29.782Z,8508
2017-01-17T12:15:30.781Z,8400
2017-01-17T12:16:31.627Z,8272
2017-01-17T12:17:29.882Z,8632
2017-01-17T12:18:29.917Z,9144
2017-01-17T12:19:29.923Z,9528
2017-01-17T12:20:31.485Z,9536
2017-01-17T12:21:30.211Z,9100
2017-01-17T12:22:31.145Z,8896
2017-01-17T12:23:30.314Z,9092
2017-01-17T12:24:31.418Z,9984
2017-01-17T12:25:32.460Z,10552
2017-01-17T12:26:31.817Z,10460
2017-01-17T12:27:31.376Z,10140
2017-01-17T12:28:30.748Z,9020
2017-01-17T12:29:31.408Z,8592
2017-01-17T12:30:31.183Z,8944
2017-01-17T12:31:31.453Z,9404
2017-01-17T12:32:31.402Z,9752
2017-01-17T12:33:30.296Z,10296
2017-01-17T12:34:30.751Z,10616
2017-01-17T12:35:31.907Z,10196
2017-01-17T12:36:31.761Z,10324
2017-01-17T12:37:31.249Z,10384
2017-01-17T12:38:31.229Z,10476
2017-01-17T12:39:31.143Z,10316
2017-01-17T12:40:31.484Z,9880
2017-01-17T12:41:30.398Z,9816
2017-01-17T12:42:30.766Z,9748
2017-01-17T12:43:32.144Z,9592
2017-01-17T12:44:31.141Z,9396
2017-01-17T12:45:30.595Z,9316
2017-01-17T12:46:30.979Z,8980
2017-01-17T12:47:31.372Z,8148
2017-01-17T12:48:31.989Z,7576
2017-01-17T12:49:30.532Z,7228
2017-01-17T12:50:30.509Z,6984
2017-01-17T12:51:30.969Z,6836
2017-01-17T12:52:30.428Z,6736
2017-01-17T12:53:31.434Z,6704
2017-01-17T12:54:31.149Z,6652
2017-01-17T12:55:30.674Z,6544
2017-01-17T12:56:31.501Z,6448
2017-01-17T12:57:31.452Z,6396
2017-01-17T12:58:31.361Z,6372
2017-01-17T12:59:31.415Z,6360
2017-01-17T13:00:31.696Z,6372
2017-01-17T13:01:31.383Z,6400
2017-01-17T13:02:31.098Z,6476
2017-01-17T13:03:31.928Z,6640
2017-01-17T13:04:31.566Z,6720
2017-01-17T13:05:30.833Z,6804
2017-01-17T13:06:31.108Z,6876
2017-01-17T13:07:32.223Z,6984
2017-01-17T13:08:30.826Z,6996
2017-01-17T13:09:30.992Z,6912
2017-01-17T13:10:30.771Z,6804
2017-01-17T13:11:31.209Z,6752
2017-01-17T13:12:30.973Z,6848
2017-01-17T13:13:30.615Z,6956
2017-01-17T13:14:31.675Z,6816
2017-01-17T13:15:31.309Z,6648
2017-01-17T13:16:31.478Z,6612
2017-01-17T13:17:31.667Z,6564
2017-01-17T13:18:31.241Z,6396
2017-01-17T13:19:31.525Z,6324
2017-01-17T13:20:31.030Z,6372
2017-01-17T13:21:32.392Z,6484
2017-01-17T13:22:31.465Z,6496
2017-01-17T13:23:30.948Z,6412
2017-01-17T13:24:31.735Z,6428
2017-01-17T13:25:31.419Z,6656
2017-01-17T13:26:32.314Z,6980
2017-01-17T13:27:31.816Z,7108
2017-01-17T13:28:31.750Z,6988
2017-01-17T13:29:31.617Z,6760
2017-01-17T13:30:31.551Z,6440
2017-01-17T13:31:31.649Z,6312
2017-01-17T13:32:31.259Z,6336
2017-01-17T13:33:31.669Z,6428
2017-01-17T13:34:31.889Z,6144
2017-01-17T13:35:31.014Z,5744
2017-01-17T13:36:30.906Z,5552
2017-01-17T13:37:31.270Z,5640
2017-01-17T13:38:32.047Z,5852
2017-01-17T13:39:31.525Z,6028
2017-01-17T13:40:30.812Z,6156
2017-01-17T13:41:31.322Z,6248
2017-01-17T13:42:31.595Z,6420
2017-01-17T13:43:31.036Z,6580
2017-01-17T13:44:31.429Z,6424
2017-01-17T13:45:31.727Z,6440
2017-01-17T13:46:31.638Z,6500
2017-01-17T13:47:31.600Z,6752
2017-01-17T13:48:31.739Z,6800
2017-01-17T13:49:31.865Z,6944
2017-01-17T13:50:31.701Z,6784
2017-01-17T13:51:30.931Z,6424
2017-01-17T13:52:31.628Z,6176
2017-01-17T13:53:32.039Z,6128
2017-01-17T13:54:32.054Z,6052
2017-01-17T13:55:31.524Z,5780
2017-01-17T13:56:32.385Z,5456
2017-01-17T13:57:32.170Z,5340
2017-01-17T13:58:31.290Z,5340
2017-01-17T13:59:32.351Z,5420
2017-01-17T14:00:31.957Z,5528
2017-01-17T14:01:32.358Z,5696